createdAt,value
2019-02-09T00:02:09.311Z,52.01
2019-02-09T00:04:42.957Z,52.07
2019-02-09T00:07:16.380Z,51.99
2019-02-09T00:09:49.821Z,52.21
2019-02-09T00:12:23.260Z,52.34
2019-02-09T00:14:57.009Z,51.50
2019-02-09T00:17:30.527Z,51.02
2019-02-09T00:20:07.195Z,51.66
2019-02-09T00:22:40.737Z,51.74
2019-02-09T00:25:16.186Z,51.88
2019-02-09T00:27:49.838Z,51.84
2019-02-09T00:30:24.365Z,51.61
2019-02-09T00:32:57.906Z,52.02
2019-02-09T00:35:31.480Z,51.87
2019-02-09T00:38:05.082Z,52.00
2019-02-09T00:40:38.686Z,51.45
2019-02-09T00:43:12.228Z,51.71
2019-02-09T00:45:45.745Z,52.02
2019-02-09T00:48:19.239Z,52.04
2019-02-09T00:50:52.862Z,51.57
2019-02-09T00:53:26.469Z,50.60
2019-02-09T00:55:59.991Z,51.82
2019-02-09T00:58:33.504Z,51.30
2019-02-09T01:01:07.003Z,51.91
2019-02-09T01:03:40.686Z,51.87
2019-02-09T01:06:14.199Z,52.15
2019-02-09T01:08:47.701Z,51.85
2019-02-09T01:11:21.143Z,51.56
2019-02-09T01:13:54.587Z,51.90
2019-02-09T01:16:28.091Z,52.20
2019-02-09T01:19:01.658Z,52.77
2019-02-09T01:21:35.176Z,53.34
2019-02-09T01:24:08.611Z,53.86
2019-02-09T01:26:42.048Z,54.61
2019-02-09T01:29:15.644Z,54.87
2019-02-09T01:31:49.082Z,55.06
2019-02-09T01:34:22.601Z,55.29
2019-02-09T01:36:56.175Z,55.60
2019-02-09T01:39:29.593Z,56.11
2019-02-09T01:42:03.112Z,55.76
2019-02-09T01:44:36.987Z,55.61
2019-02-09T01:47:10.578Z,55.47
2019-02-09T01:49:43.923Z,55.88
2019-02-09T01:52:17.364Z,55.60
2019-02-09T01:54:50.857Z,55.24
2019-02-09T01:57:24.346Z,55.24
2019-02-09T01:59:57.830Z,54.92
2019-02-09T02:02:31.286Z,54.99
2019-02-09T02:05:07.186Z,54.72
2019-02-09T02:07:40.615Z,54.46
2019-02-09T02:10:20.007Z,54.34
2019-02-09T02:12:53.487Z,54.21
2019-02-09T02:15:27.794Z,54.54
2019-02-09T02:18:01.734Z,54.27
2019-02-09T02:20:35.195Z,53.71
2019-02-09T02:23:08.757Z,53.90
2019-02-09T02:25:42.416Z,53.91
2019-02-09T02:28:15.850Z,53.69
2019-02-09T02:30:49.384Z,53.67
2019-02-09T02:33:22.809Z,53.84
2019-02-09T02:35:56.376Z,53.70
2019-02-09T02:38:29.812Z,54.10
2019-02-09T02:41:03.265Z,53.59
2019-02-09T02:43:36.630Z,53.44
2019-02-09T02:46:10.383Z,53.50
2019-02-09T02:48:43.796Z,53.35
2019-02-09T02:51:17.542Z,53.77
2019-02-09T02:53:50.980Z,53.30
2019-02-09T02:56:24.452Z,53.37
2019-02-09T02:58:57.869Z,53.19
2019-02-09T03:01:31.242Z,53.55
2019-02-09T03:04:04.929Z,53.38
2019-02-09T03:06:38.626Z,53.55
2019-02-09T03:09:12.127Z,53.38
2019-02-09T03:11:45.703Z,53.44
2019-02-09T03:14:19.252Z,53.46
2019-02-09T03:16:52.694Z,53.20
2019-02-09T03:19:26.187Z,53.28
2019-02-09T03:21:59.685Z,53.50
2019-02-09T03:24:33.124Z,53.62
2019-02-09T03:27:06.588Z,53.36
2019-02-09T03:29:39.938Z,53.36
2019-02-09T03:32:13.402Z,53.59
2019-02-09T03:34:47.053Z,54.77
2019-02-09T03:37:20.502Z,54.88
2019-02-09T03:39:53.923Z,55.63
2019-02-09T03:42:27.469Z,56.17
2019-02-09T03:45:01.068Z,55.98
2019-02-09T03:47:34.698Z,56.40
2019-02-09T03:50:11.294Z,56.60
2019-02-09T03:52:44.910Z,56.42
2019-02-09T03:55:18.361Z,57.15
2019-02-09T03:57:51.798Z,57.19
2019-02-09T04:00:27.347Z,57.25
2019-02-09T04:03:02.424Z,57.14
2019-02-09T04:05:35.937Z,57.72
2019-02-09T04:08:09.448Z,57.44
2019-02-09T04:10:43.015Z,57.06
2019-02-09T04:13:16.794Z,56.74
2019-02-09T04:15:50.246Z,57.01
2019-02-09T04:18:23.624Z,57.20
2019-02-09T04:20:57.114Z,56.82
2019-02-09T04:23:30.543Z,56.90
2019-02-09T04:26:04.031Z,57.01
2019-02-09T04:28:37.491Z,57.13
2019-02-09T04:31:10.907Z,57.34
2019-02-09T04:33:44.436Z,57.27
2019-02-09T04:36:17.880Z,57.18
2019-02-09T04:38:51.322Z,56.71
2019-02-09T04:41:24.740Z,56.91
2019-02-09T04:43:58.186Z,57.00
2019-02-09T04:46:31.603Z,56.82
2019-02-09T04:49:05.119Z,56.76
2019-02-09T04:51:38.631Z,56.70
2019-02-09T04:54:12.086Z,56.64
2019-02-09T04:56:45.498Z,56.59
2019-02-09T04:59:18.901Z,56.76
2019-02-09T05:01:52.395Z,56.60
2019-02-09T05:04:25.840Z,56.28
2019-02-09T05:06:59.220Z,56.03
2019-02-09T05:09:32.757Z,55.98
2019-02-09T05:12:06.310Z,55.94
2019-02-09T05:14:39.942Z,56.12
2019-02-09T05:17:13.363Z,55.88
2019-02-09T05:19:46.831Z,55.77
2019-02-09T05:22:20.234Z,55.62
2019-02-09T05:24:53.749Z,55.93
2019-02-09T05:27:27.148Z,55.47
2019-02-09T05:30:00.746Z,55.53
2019-02-09T05:32:34.346Z,56.04
2019-02-09T05:35:09.895Z,55.86
2019-02-09T05:37:43.327Z,56.33
2019-02-09T05:40:19.896Z,56.20
2019-02-09T05:42:53.716Z,56.78
2019-02-09T05:45:29.673Z,56.48
2019-02-09T05:48:03.199Z,56.58
2019-02-09T05:50:36.624Z,56.75
2019-02-09T05:53:10.242Z,56.56
2019-02-09T05:55:43.648Z,56.51
2019-02-09T05:58:17.028Z,56.32
2019-02-09T06:00:50.644Z,56.29
2019-02-09T06:03:24.312Z,56.22
2019-02-09T06:05:57.813Z,56.26
2019-02-09T06:08:31.328Z,56.35
2019-02-09T06:11:04.838Z,56.05
2019-02-09T06:13:38.274Z,56.51
2019-02-09T06:16:11.620Z,56.40
2019-02-09T06:18:45.058Z,56.37
2019-02-09T06:21:18.497Z,56.27
2019-02-09T06:23:51.983Z,56.21
2019-02-09T06:26:25.542Z,56.11
2019-02-09T06:28:59.013Z,55.89
2019-02-09T06:31:40.246Z,56.12
2019-02-09T06:34:07.663Z,56.15
2019-02-09T06:36:41.122Z,56.28
2019-02-09T06:39:14.573Z,56.41
2019-02-09T06:41:47.942Z,56.13
2019-02-09T06:44:21.399Z,56.46
2019-02-09T06:46:54.812Z,56.66
2019-02-09T06:49:28.393Z,56.96
2019-02-09T06:52:01.895Z,56.94
2019-02-09T06:54:35.508Z,57.58
2019-02-09T06:57:08.846Z,58.49
2019-02-09T06:59:42.286Z,58.71
2019-02-09T07:02:15.653Z,58.94
2019-02-09T07:04:49.111Z,59.65
2019-02-09T07:07:22.464Z,59.66
2019-02-09T07:09:55.951Z,59.96
2019-02-09T07:12:29.715Z,59.81
2019-02-09T07:15:03.624Z,59.77
2019-02-09T07:17:37.059Z,59.93
2019-02-09T07:20:12.378Z,60.53
2019-02-09T07:22:45.860Z,60.95
2019-02-09T07:25:19.801Z,61.04
2019-02-09T07:27:53.395Z,61.23
2019-02-09T07:30:30.979Z,61.75
2019-02-09T07:33:06.128Z,62.28
2019-02-09T07:35:39.820Z,61.90
2019-02-09T07:38:13.631Z,61.84
2019-02-09T07:40:47.082Z,62.11
2019-02-09T07:43:20.499Z,62.33
2019-02-09T07:45:54.047Z,62.25
2019-02-09T07:48:27.683Z,62.15
2019-02-09T07:51:01.132Z,62.15
2019-02-09T07:53:34.474Z,62.64
2019-02-09T07:56:07.918Z,62.76
2019-02-09T07:58:41.398Z,62.47
2019-02-09T08:01:15.413Z,62.43
2019-02-09T08:03:49.466Z,62.47
2019-02-09T08:06:23.335Z,62.53
2019-02-09T08:08:56.759Z,62.52
2019-02-09T08:11:30.294Z,63.01
2019-02-09T08:14:03.946Z,62.95
2019-02-09T08:16:37.464Z,62.98
2019-02-09T08:19:10.974Z,62.73
2019-02-09T08:21:44.460Z,63.04
2019-02-09T08:24:17.938Z,62.28
2019-02-09T08:26:51.463Z,62.21
2019-02-09T08:29:25.028Z,62.14
2019-02-09T08:31:58.486Z,62.10
2019-02-09T08:34:32.016Z,61.48
2019-02-09T08:37:05.686Z,61.43
2019-02-09T08:39:39.616Z,61.10
2019-02-09T08:42:13.609Z,60.81
2019-02-09T08:44:47.133Z,61.20
2019-02-09T08:47:21.086Z,60.86
2019-02-09T08:49:54.714Z,60.72
2019-02-09T08:52:28.190Z,60.03
2019-02-09T08:55:01.750Z,59.54
2019-02-09T08:57:35.231Z,58.99
2019-02-09T09:00:14.589Z,59.44
2019-02-09T09:02:48.086Z,59.27
2019-02-09T09:05:21.784Z,58.87
2019-02-09T09:07:55.353Z,58.55
2019-02-09T09:10:32.204Z,58.27
2019-02-09T09:13:05.862Z,58.07
2019-02-09T09:15:44.717Z,57.69
2019-02-09T09:18:18.200Z,56.51
2019-02-09T09:20:54.472Z,55.50
2019-02-09T09:23:28.008Z,55.70
2019-02-09T09:26:01.592Z,55.61
2019-02-09T09:28:35.082Z,54.92
2019-02-09T09:31:08.811Z,55.64
2019-02-09T09:33:42.298Z,54.68
2019-02-09T09:36:15.933Z,54.74
2019-02-09T09:38:49.342Z,54.09
2019-02-09T09:41:22.857Z,53.34
2019-02-09T09:43:56.279Z,52.80
2019-02-09T09:46:29.735Z,51.48
2019-02-09T09:49:03.441Z,52.00
2019-02-09T09:51:36.885Z,50.78
2019-02-09T09:54:10.476Z,50.45
2019-02-09T09:56:44.038Z,51.11
2019-02-09T09:59:17.586Z,50.97
2019-02-09T10:01:51.060Z,51.48
2019-02-09T10:04:24.474Z,50.58
2019-02-09T10:06:57.992Z,50.60
2019-02-09T10:09:31.889Z,50.60
2019-02-09T10:12:05.431Z,50.51
2019-02-09T10:14:38.909Z,50.38
2019-02-09T10:17:12.432Z,49.70
2019-02-09T10:19:45.842Z,50.20
2019-02-09T10:22:19.222Z,48.87
2019-02-09T10:24:52.637Z,48.71
2019-02-09T10:27:26.084Z,48.41
2019-02-09T10:29:59.654Z,48.63
2019-02-09T10:32:33.319Z,47.78
2019-02-09T10:35:09.228Z,47.55
2019-02-09T10:37:42.751Z,47.06
2019-02-09T10:40:30.539Z,47.01
2019-02-09T10:43:06.694Z,46.67
2019-02-09T10:45:40.141Z,47.02
2019-02-09T10:48:13.728Z,47.81
2019-02-09T10:50:47.963Z,46.63
2019-02-09T10:53:21.446Z,46.13
2019-02-09T10:55:54.891Z,45.94
2019-02-09T10:58:28.236Z,45.86
2019-02-09T11:01:04.816Z,46.21
2019-02-09T11:03:38.369Z,45.89
2019-02-09T11:06:12.067Z,46.11
2019-02-09T11:08:45.849Z,45.36
2019-02-09T11:11:19.288Z,45.52
2019-02-09T11:13:52.787Z,44.91
2019-02-09T11:16:26.344Z,45.48
2019-02-09T11:18:59.760Z,45.12
2019-02-09T11:21:33.267Z,44.93
2019-02-09T11:24:06.794Z,44.92
2019-02-09T11:26:40.372Z,44.74
2019-02-09T11:29:13.740Z,44.67
2019-02-09T11:31:47.195Z,44.34
2019-02-09T11:34:20.614Z,43.76
2019-02-09T11:36:54.055Z,42.94
2019-02-09T11:39:27.467Z,43.62
2019-02-09T11:42:01.016Z,43.58
2019-02-09T11:44:41.048Z,43.65
2019-02-09T11:47:09.730Z,40.23
2019-02-09T11:49:43.260Z,43.37
2019-02-09T11:52:16.756Z,43.25
2019-02-09T11:54:50.270Z,43.07
2019-02-09T11:57:23.806Z,42.99
2019-02-09T11:59:57.298Z,43.47
2019-02-09T12:02:30.859Z,44.14
2019-02-09T12:05:06.080Z,43.61
2019-02-09T12:07:39.616Z,44.20
2019-02-09T12:10:18.524Z,43.78
2019-02-09T12:12:51.929Z,43.12
2019-02-09T12:15:27.758Z,43.55
2019-02-09T12:18:01.300Z,43.54
2019-02-09T12:20:34.856Z,44.40
2019-02-09T12:23:08.297Z,44.38
2019-02-09T12:25:41.788Z,43.37
2019-02-09T12:28:15.303Z,43.76
2019-02-09T12:30:48.768Z,44.23
2019-02-09T12:33:23.371Z,43.75
2019-02-09T12:35:57.029Z,43.93
2019-02-09T12:38:30.569Z,46.01
2019-02-09T12:41:04.194Z,52.99
2019-02-09T12:43:37.870Z,53.36
2019-02-09T12:46:11.475Z,54.20
2019-02-09T12:48:44.895Z,55.28
2019-02-09T12:51:18.426Z,56.21
2019-02-09T12:53:51.863Z,56.82
2019-02-09T12:56:25.395Z,56.23
2019-02-09T12:58:58.919Z,56.71
2019-02-09T13:01:32.361Z,57.40
2019-02-09T13:04:05.921Z,56.97
2019-02-09T13:06:39.442Z,56.75
2019-02-09T13:09:12.855Z,56.83
2019-02-09T13:11:46.497Z,56.01
2019-02-09T13:14:19.907Z,55.99
2019-02-09T13:16:53.277Z,55.14
2019-02-09T13:19:26.687Z,54.36
2019-02-09T13:22:00.138Z,53.38
2019-02-09T13:24:33.696Z,53.54
2019-02-09T13:27:07.227Z,51.93
2019-02-09T13:29:40.897Z,52.29
2019-02-09T13:32:14.432Z,51.92
2019-02-09T13:34:48.122Z,50.97
2019-02-09T13:37:21.852Z,51.66
2019-02-09T13:39:55.559Z,51.24
2019-02-09T13:42:28.975Z,50.01
2019-02-09T13:45:02.497Z,49.20
2019-02-09T13:47:36.001Z,49.35
2019-02-09T13:50:12.646Z,49.20
2019-02-09T13:52:46.046Z,48.86
2019-02-09T13:55:19.599Z,48.83
2019-02-09T13:57:53.088Z,48.12
2019-02-09T14:00:29.394Z,48.33
2019-02-09T14:03:03.693Z,48.04
2019-02-09T14:05:37.290Z,47.20
2019-02-09T14:08:10.722Z,46.12
2019-02-09T14:10:44.255Z,46.11
2019-02-09T14:13:17.698Z,46.31
2019-02-09T14:15:51.228Z,46.81
2019-02-09T14:18:24.646Z,45.98
2019-02-09T14:20:58.181Z,46.88
2019-02-09T14:23:31.595Z,46.92
2019-02-09T14:26:05.619Z,47.01
2019-02-09T14:28:39.115Z,46.64
2019-02-09T14:31:12.570Z,46.80
2019-02-09T14:33:45.981Z,46.38
2019-02-09T14:36:19.586Z,46.58
2019-02-09T14:38:53.390Z,46.09
2019-02-09T14:41:26.868Z,47.13
2019-02-09T14:44:00.284Z,47.90
2019-02-09T14:46:33.742Z,48.69
2019-02-09T14:49:07.255Z,48.57
2019-02-09T14:51:40.704Z,48.98
2019-02-09T14:54:14.127Z,48.13
2019-02-09T14:56:47.664Z,48.00
2019-02-09T14:59:21.148Z,47.63
2019-02-09T15:01:54.714Z,47.23
2019-02-09T15:04:28.245Z,46.88
2019-02-09T15:07:01.698Z,45.07
2019-02-09T15:09:35.124Z,45.88
2019-02-09T15:12:08.624Z,45.44
2019-02-09T15:14:42.068Z,44.30
2019-02-09T15:17:15.480Z,45.31
2019-02-09T15:19:48.963Z,44.54
2019-02-09T15:22:22.392Z,44.46
2019-02-09T15:24:55.993Z,44.77
2019-02-09T15:27:29.443Z,45.32
2019-02-09T15:30:02.974Z,45.05
2019-02-09T15:32:36.457Z,44.88
2019-02-09T15:35:15.386Z,45.01
2019-02-09T15:37:48.927Z,44.72
2019-02-09T15:40:23.180Z,45.04
2019-02-09T15:42:57.216Z,45.79
2019-02-09T15:45:30.675Z,48.91
2019-02-09T15:48:04.848Z,51.43
2019-02-09T15:50:38.348Z,51.66
2019-02-09T15:53:11.706Z,52.00
2019-02-09T15:55:45.154Z,52.15
2019-02-09T15:58:18.682Z,52.07
2019-02-09T16:00:52.127Z,51.89
2019-02-09T16:03:25.627Z,51.63
2019-02-09T16:05:59.137Z,51.20
2019-02-09T16:08:32.508Z,51.58
2019-02-09T16:11:05.968Z,51.46
2019-02-09T16:13:45.560Z,51.21
2019-02-09T16:16:14.868Z,51.08
2019-02-09T16:18:48.348Z,51.58
2019-02-09T16:21:22.141Z,51.43
2019-02-09T16:23:55.660Z,51.45
2019-02-09T16:26:29.108Z,51.98
2019-02-09T16:29:02.518Z,52.50
2019-02-09T16:31:36.145Z,52.96
2019-02-09T16:34:09.564Z,53.53
2019-02-09T16:36:43.223Z,54.99
2019-02-09T16:39:16.665Z,55.03
2019-02-09T16:41:50.130Z,54.98
2019-02-09T16:44:23.689Z,54.81
2019-02-09T16:46:57.156Z,55.09
2019-02-09T16:49:30.792Z,54.83
2019-02-09T16:52:04.481Z,54.93
2019-02-09T16:54:37.923Z,55.33
2019-02-09T16:57:11.363Z,54.96
2019-02-09T16:59:44.807Z,55.55
2019-02-09T17:02:18.332Z,55.64
2019-02-09T17:04:51.751Z,55.94
2019-02-09T17:07:25.361Z,55.92
2019-02-09T17:09:58.962Z,55.83
2019-02-09T17:12:32.400Z,55.92
2019-02-09T17:15:09.220Z,55.76
2019-02-09T17:17:42.777Z,55.66
2019-02-09T17:20:16.680Z,55.89
2019-02-09T17:22:51.759Z,56.46
2019-02-09T17:25:28.504Z,57.13
2019-02-09T17:28:01.990Z,57.19
2019-02-09T17:30:37.419Z,57.74
2019-02-09T17:33:10.947Z,57.44
2019-02-09T17:35:44.433Z,57.27
2019-02-09T17:38:17.906Z,57.49
2019-02-09T17:40:51.344Z,57.43
2019-02-09T17:43:24.868Z,57.24
2019-02-09T17:46:03.911Z,57.19
2019-02-09T17:48:37.420Z,56.95
2019-02-09T17:51:10.892Z,56.94
2019-02-09T17:53:45.282Z,56.77
2019-02-09T17:56:18.832Z,56.90
2019-02-09T17:58:52.438Z,56.57
2019-02-09T18:01:25.918Z,56.46
2019-02-09T18:04:00.264Z,56.13
2019-02-09T18:06:34.026Z,56.00
2019-02-09T18:09:07.958Z,56.04
2019-02-09T18:11:41.588Z,55.85
2019-02-09T18:14:14.998Z,55.95
2019-02-09T18:16:48.461Z,55.71
2019-02-09T18:19:22.044Z,55.77
2019-02-09T18:21:55.531Z,55.86
2019-02-09T18:24:28.951Z,55.79
2019-02-09T18:27:02.433Z,55.33
2019-02-09T18:29:35.912Z,54.84
2019-02-09T18:32:09.440Z,55.47
2019-02-09T18:34:42.869Z,55.06
2019-02-09T18:37:16.407Z,54.47
2019-02-09T18:39:49.985Z,54.84
2019-02-09T18:42:23.467Z,54.65
2019-02-09T18:44:57.191Z,54.46
2019-02-09T18:47:30.913Z,54.56
2019-02-09T18:50:07.229Z,54.29
2019-02-09T18:52:40.725Z,54.33
2019-02-09T18:55:16.695Z,54.12
2019-02-09T18:57:50.280Z,53.84
2019-02-09T19:00:26.236Z,54.60
2019-02-09T19:02:59.717Z,54.35
2019-02-09T19:05:33.275Z,54.31
2019-02-09T19:08:07.937Z,54.17
2019-02-09T19:10:41.368Z,54.21
2019-02-09T19:13:14.910Z,54.35
2019-02-09T19:15:48.443Z,54.15
2019-02-09T19:18:21.915Z,54.08
2019-02-09T19:20:58.120Z,53.78
2019-02-09T19:23:31.591Z,53.83
2019-02-09T19:26:05.180Z,53.93
2019-02-09T19:28:38.681Z,53.95
2019-02-09T19:31:12.090Z,53.80
2019-02-09T19:33:45.588Z,54.05
2019-02-09T19:36:19.066Z,54.19
2019-02-09T19:38:52.451Z,54.56
2019-02-09T19:41:25.804Z,54.57
2019-02-09T19:43:59.434Z,54.61
2019-02-09T19:46:32.847Z,55.26
2019-02-09T19:49:06.391Z,55.76
2019-02-09T19:51:39.810Z,56.14
2019-02-09T19:54:13.398Z,56.40
2019-02-09T19:56:46.966Z,56.99
2019-02-09T19:59:20.419Z,57.49
2019-02-09T20:01:53.851Z,57.62
2019-02-09T20:04:27.371Z,58.14
2019-02-09T20:07:00.802Z,58.40
2019-02-09T20:09:34.369Z,58.96
2019-02-09T20:12:07.829Z,58.57
2019-02-09T20:14:41.400Z,58.76
2019-02-09T20:17:14.772Z,58.66
2019-02-09T20:19:48.427Z,58.72
2019-02-09T20:22:21.900Z,58.74
2019-02-09T20:24:55.469Z,58.66
2019-02-09T20:27:28.904Z,58.74
2019-02-09T20:30:02.364Z,58.74
2019-02-09T20:32:35.834Z,58.70
2019-02-09T20:35:13.482Z,58.77
2019-02-09T20:37:47.223Z,58.58
2019-02-09T20:40:29.399Z,58.93
2019-02-09T20:43:04.350Z,58.73
2019-02-09T20:45:38.293Z,58.61
2019-02-09T20:48:12.705Z,58.62
2019-02-09T20:50:46.230Z,58.62
2019-02-09T20:53:19.759Z,58.66
2019-02-09T20:55:53.201Z,58.47
2019-02-09T20:58:26.801Z,58.40
2019-02-09T21:01:00.319Z,58.83
2019-02-09T21:03:33.837Z,59.04
2019-02-09T21:06:07.378Z,59.01
2019-02-09T21:08:40.897Z,58.96
2019-02-09T21:11:14.378Z,58.84
2019-02-09T21:13:47.950Z,58.66
2019-02-09T21:16:21.364Z,58.82
2019-02-09T21:18:54.897Z,58.52
2019-02-09T21:21:28.331Z,58.42
2019-02-09T21:24:01.892Z,58.62
2019-02-09T21:26:35.358Z,58.43
2019-02-09T21:29:08.855Z,58.58
2019-02-09T21:31:42.376Z,58.22
2019-02-09T21:34:15.890Z,58.08
2019-02-09T21:36:49.333Z,57.71
2019-02-09T21:39:22.802Z,57.42
2019-02-09T21:41:56.291Z,57.05
2019-02-09T21:44:29.740Z,57.29
2019-02-09T21:47:03.346Z,56.92
2019-02-09T21:49:36.766Z,56.68
2019-02-09T21:52:10.352Z,56.67
2019-02-09T21:54:43.855Z,56.64
2019-02-09T21:57:17.542Z,56.60
2019-02-09T21:59:51.241Z,56.22
2019-02-09T22:02:24.752Z,55.98
2019-02-09T22:04:58.237Z,55.80
2019-02-09T22:07:31.757Z,55.61
2019-02-09T22:10:08.382Z,55.66
2019-02-09T22:12:41.931Z,55.62
2019-02-09T22:15:16.778Z,55.14
2019-02-09T22:17:50.262Z,55.69
2019-02-09T22:20:23.773Z,55.38
2019-02-09T22:22:57.314Z,55.38
2019-02-09T22:25:31.054Z,55.18
2019-02-09T22:28:04.996Z,54.83
2019-02-09T22:30:38.540Z,55.27
2019-02-09T22:33:12.098Z,55.19
2019-02-09T22:35:45.684Z,55.28
2019-02-09T22:38:19.260Z,55.21
2019-02-09T22:40:52.935Z,55.18
2019-02-09T22:43:26.570Z,55.42
2019-02-09T22:46:00.057Z,55.28
2019-02-09T22:48:33.699Z,55.20
2019-02-09T22:51:07.374Z,55.44
2019-02-09T22:53:40.852Z,55.39
2019-02-09T22:56:14.355Z,55.26
2019-02-09T22:58:47.851Z,55.16
2019-02-09T23:01:24.438Z,55.00
2019-02-09T23:04:01.158Z,55.22
2019-02-09T23:06:43.567Z,55.20
2019-02-09T23:09:17.067Z,55.14
2019-02-09T23:11:50.481Z,55.11
2019-02-09T23:14:23.927Z,55.02
2019-02-09T23:16:57.338Z,55.41
2019-02-09T23:19:30.862Z,55.68
2019-02-09T23:22:04.269Z,55.64
2019-02-09T23:24:37.730Z,55.82
2019-02-09T23:27:11.351Z,55.85
2019-02-09T23:29:44.933Z,55.88
2019-02-09T23:32:18.495Z,55.67
2019-02-09T23:34:52.019Z,55.51
2019-02-09T23:37:25.730Z,55.40
2019-02-09T23:39:59.272Z,55.25
2019-02-09T23:42:32.932Z,55.38
2019-02-09T23:45:07.000Z,55.35
2019-02-09T23:47:40.419Z,55.25
2019-02-09T23:50:13.898Z,55.38
2019-02-09T23:52:47.630Z,55.57
2019-02-09T23:55:21.181Z,55.71
2019-02-09T23:57:54.673Z,55.56
